Harper, Kansas
Current Conditions -  °F | °C
As of 3:53 AM on Thursday 23 Oct 2014 (Local Time) from KICT Reporting Station
Overcast Overcast  
Wind Chill: 62°   Ceiling: 4000
Heat Index: 62°   Visibility: 10mi
Dew Point: 57°   Wind: 6mph
Humidity: 84%   Direction: 190°S
Pressure: 30.08"   Gusts: NA
Location:  37.29°N, 98.03°W
Report Text: KICT 230853Z 19005KT 10SM BKN040 BKN060 OVC090 17/14 A3008 RMK AO2 SLP177 T01670139 50001
Loading
Personal Weather Stations






























Interactive Weather Map
Tropical Storm Tracking
New forecast layout! Learn more

10-Day Weather Forecast

Advertisements
Track Severe Weather on mobile